createdAt,value
2022-08-30T00:01:52.850Z,10.67
2022-08-30T00:04:55.528Z,10.87
2022-08-30T00:07:58.039Z,10.73
2022-08-30T00:11:00.720Z,9.47
2022-08-30T00:14:02.764Z,9.93
2022-08-30T00:17:05.198Z,9.03
2022-08-30T00:20:11.018Z,8.43
2022-08-30T00:23:13.891Z,8.60
2022-08-30T00:26:16.185Z,9.63
2022-08-30T00:29:18.158Z,9.63
2022-08-30T00:32:21.625Z,9.70
2022-08-30T00:35:24.024Z,11.93
2022-08-30T00:38:25.984Z,10.97
2022-08-30T00:41:27.975Z,10.53
2022-08-30T00:44:29.909Z,10.87
2022-08-30T00:47:31.894Z,11.53
2022-08-30T00:50:43.408Z,13.23
2022-08-30T00:53:49.470Z,12.03
2022-08-30T00:56:52.540Z,12.27
2022-08-30T00:59:54.967Z,8.93
2022-08-30T01:02:56.952Z,11.87
2022-08-30T01:06:00.590Z,13.20
2022-08-30T01:09:04.916Z,10.13
2022-08-30T01:12:07.239Z,9.83
2022-08-30T01:15:11.854Z,14.70
2022-08-30T01:18:17.490Z,8.97
2022-08-30T01:21:35.136Z,8.83
2022-08-30T01:24:37.926Z,11.07
2022-08-30T01:27:44.955Z,10.43
2022-08-30T01:30:47.340Z,8.87
2022-08-30T01:33:49.325Z,11.47
2022-08-30T01:36:51.859Z,9.23
2022-08-30T01:39:54.655Z,13.53
2022-08-30T01:42:56.700Z,12.13
2022-08-30T01:45:58.745Z,12.70
2022-08-30T01:49:00.775Z,8.67
2022-08-30T01:52:04.585Z,10.00
2022-08-30T01:55:07.416Z,8.47
2022-08-30T01:58:09.480Z,10.07
2022-08-30T02:01:14.592Z,9.63
2022-08-30T02:04:17.091Z,13.73
2022-08-30T02:07:20.003Z,11.63
2022-08-30T02:10:22.355Z,13.23
2022-08-30T02:13:24.316Z,11.67
2022-08-30T02:16:26.694Z,10.47
2022-08-30T02:19:29.925Z,11.63
2022-08-30T02:22:31.860Z,9.93
2022-08-30T02:25:33.925Z,10.70
2022-08-30T02:28:42.870Z,9.93
2022-08-30T02:31:52.315Z,12.93
2022-08-30T02:34:55.185Z,11.10
2022-08-30T02:37:57.460Z,9.37
2022-08-30T02:40:59.647Z,8.67
2022-08-30T02:44:01.919Z,12.53
2022-08-30T02:47:04.736Z,8.77
2022-08-30T02:50:08.366Z,9.40
2022-08-30T02:53:10.440Z,8.53
2022-08-30T02:56:16.985Z,11.00
2022-08-30T02:59:19.214Z,8.07
2022-08-30T03:02:22.430Z,9.30
2022-08-30T03:05:24.966Z,10.17
2022-08-30T03:08:26.943Z,8.47
2022-08-30T03:11:29.760Z,9.53
2022-08-30T03:14:32.414Z,8.97
2022-08-30T03:17:35.222Z,10.57
2022-08-30T03:20:37.176Z,8.90
2022-08-30T03:23:41.075Z,10.43
2022-08-30T03:26:46.217Z,10.57
2022-08-30T03:29:48.666Z,9.23
2022-08-30T03:32:51.406Z,9.87
2022-08-30T03:35:53.469Z,9.83
2022-08-30T03:38:55.616Z,11.20
2022-08-30T03:41:57.840Z,10.00
2022-08-30T03:45:03.096Z,8.80
2022-08-30T03:48:05.197Z,10.97
2022-08-30T03:51:07.371Z,10.03
2022-08-30T03:54:10.275Z,10.90
2022-08-30T03:57:20.096Z,11.77
2022-08-30T04:00:26.975Z,10.10
2022-08-30T04:03:29.596Z,11.53
2022-08-30T04:06:31.513Z,11.10
2022-08-30T04:09:33.681Z,11.23
2022-08-30T04:12:38.482Z,10.23
2022-08-30T04:15:41.080Z,11.57
2022-08-30T04:18:43.090Z,9.73
2022-08-30T04:21:45.119Z,13.63
2022-08-30T04:24:47.058Z,9.67
2022-08-30T04:27:49.565Z,12.73
2022-08-30T04:30:51.678Z,13.17
2022-08-30T04:33:53.699Z,11.57
2022-08-30T04:36:55.990Z,9.93
2022-08-30T04:40:02.940Z,12.47
2022-08-30T04:43:05.000Z,9.90
2022-08-30T04:46:08.516Z,10.67
2022-08-30T04:49:10.790Z,11.13
2022-08-30T04:52:12.894Z,13.00
2022-08-30T04:55:19.500Z,10.87
2022-08-30T04:58:22.274Z,11.37
2022-08-30T05:01:27.566Z,10.27
2022-08-30T05:04:30.566Z,10.50
2022-08-30T05:07:33.026Z,12.90
2022-08-30T05:10:37.515Z,9.33
2022-08-30T05:13:39.518Z,12.47
2022-08-30T05:16:41.935Z,13.97
2022-08-30T05:19:44.067Z,9.60
2022-08-30T05:22:53.631Z,10.43
2022-08-30T05:25:56.361Z,9.93
2022-08-30T05:28:58.642Z,10.17
2022-08-30T05:32:00.817Z,10.63
2022-08-30T05:35:07.047Z,9.57
2022-08-30T05:38:09.231Z,9.73
2022-08-30T05:41:12.890Z,13.63
2022-08-30T05:44:14.874Z,12.70
2022-08-30T05:47:16.885Z,8.53
2022-08-30T05:50:18.985Z,10.97
2022-08-30T05:53:21.030Z,10.17
2022-08-30T05:56:30.978Z,11.97
2022-08-30T05:59:33.745Z,8.93
2022-08-30T06:02:35.752Z,8.27
2022-08-30T06:05:37.743Z,8.57
2022-08-30T06:08:40.565Z,9.43
2022-08-30T06:11:43.486Z,8.83
2022-08-30T06:14:45.465Z,8.30
2022-08-30T06:17:48.568Z,11.50
2022-08-30T06:20:51.478Z,9.10
2022-08-30T06:23:54.126Z,8.73
2022-08-30T06:26:56.034Z,8.63
2022-08-30T06:29:58.325Z,9.73
2022-08-30T06:33:00.955Z,9.43
2022-08-30T06:36:05.955Z,11.37
2022-08-30T06:39:08.961Z,9.97
2022-08-30T06:42:11.259Z,8.07
2022-08-30T06:45:13.360Z,8.57
2022-08-30T06:48:15.380Z,7.83
2022-08-30T06:51:28.636Z,8.40
2022-08-30T06:54:31.195Z,8.60
2022-08-30T06:57:33.233Z,11.43
2022-08-30T07:00:35.224Z,8.43
2022-08-30T07:03:38.700Z,6.63
2022-08-30T07:06:40.705Z,7.73
2022-08-30T07:09:44.085Z,6.77
2022-08-30T07:12:46.118Z,6.90
2022-08-30T07:15:48.674Z,6.78
2022-08-30T07:18:50.807Z,6.60
2022-08-30T07:21:52.735Z,6.00
2022-08-30T07:24:54.745Z,7.53
2022-08-30T07:27:57.345Z,10.95
2022-08-30T07:30:59.631Z,6.43
2022-08-30T07:34:02.831Z,6.05
2022-08-30T07:37:04.767Z,5.78
2022-08-30T07:40:07.424Z,5.75
2022-08-30T07:43:09.789Z,5.57
2022-08-30T07:46:11.806Z,7.10
2022-08-30T07:49:13.975Z,7.53
2022-08-30T07:52:15.905Z,6.22
2022-08-30T07:55:18.396Z,5.65
2022-08-30T07:58:20.958Z,5.25
2022-08-30T08:01:23.996Z,6.43
2022-08-30T08:04:26.306Z,6.60
2022-08-30T08:07:28.356Z,7.97
2022-08-30T08:10:30.300Z,5.28
2022-08-30T08:13:32.759Z,5.97
2022-08-30T08:16:39.345Z,6.35
2022-08-30T08:19:41.280Z,5.07
2022-08-30T08:22:44.528Z,5.63
2022-08-30T08:25:46.965Z,5.75
2022-08-30T08:28:49.221Z,5.47
2022-08-30T08:31:51.205Z,5.97
2022-08-30T08:34:53.186Z,6.25
2022-08-30T08:37:55.405Z,5.93
2022-08-30T08:41:22.650Z,6.22
2022-08-30T08:44:56.035Z,4.97
2022-08-30T08:48:58.188Z,5.45
2022-08-30T08:52:15.910Z,5.95
2022-08-30T08:55:21.625Z,8.20
2022-08-30T08:58:32.780Z,5.32
2022-08-30T09:01:35.201Z,7.32
2022-08-30T09:04:38.271Z,6.82
2022-08-30T09:07:43.179Z,5.45
2022-08-30T09:10:59.049Z,11.05
2022-08-30T09:14:01.495Z,7.30
2022-08-30T09:17:07.342Z,5.22
2022-08-30T09:20:09.513Z,5.45
2022-08-30T09:23:15.919Z,6.60
2022-08-30T09:26:30.395Z,6.95
2022-08-30T09:29:32.770Z,6.18
2022-08-30T09:32:41.951Z,7.18
2022-08-30T09:35:49.460Z,8.02
2022-08-30T09:39:01.095Z,6.35
2022-08-30T09:42:16.056Z,7.45
2022-08-30T09:45:20.824Z,5.78
2022-08-30T09:48:33.838Z,6.22
2022-08-30T09:51:40.675Z,5.88
2022-08-30T09:55:05.361Z,5.65
2022-08-30T09:58:17.966Z,7.25
2022-08-30T10:01:33.779Z,7.97
2022-08-30T10:05:49.863Z,6.55
2022-08-30T10:09:06.779Z,5.18
2022-08-30T10:12:17.680Z,6.28
2022-08-30T10:15:41.744Z,6.55
2022-08-30T10:18:56.354Z,6.15
2022-08-30T10:22:05.285Z,5.57
2022-08-30T10:25:12.029Z,6.65
2022-08-30T10:28:26.810Z,5.45
2022-08-30T10:31:50.271Z,5.78
2022-08-30T10:34:57.266Z,5.55
2022-08-30T10:38:15.217Z,5.68
2022-08-30T10:41:33.724Z,5.45
2022-08-30T10:44:44.670Z,5.22
2022-08-30T10:48:30.047Z,5.53
2022-08-30T10:51:40.381Z,5.53
2022-08-30T10:54:47.988Z,9.75
2022-08-30T10:57:51.430Z,5.10
2022-08-30T11:01:07.876Z,5.28
2022-08-30T11:04:44.513Z,5.93
2022-08-30T11:08:08.577Z,7.70
2022-08-30T11:11:31.495Z,5.32
2022-08-30T11:14:33.413Z,4.82
2022-08-30T11:17:44.702Z,5.15
2022-08-30T11:20:52.140Z,5.80
2022-08-30T11:24:14.399Z,5.90
2022-08-30T11:27:52.072Z,4.28
2022-08-30T11:31:04.510Z,5.35
2022-08-30T11:34:08.457Z,8.90
2022-08-30T11:37:34.033Z,5.65
2022-08-30T11:41:10.571Z,4.70
2022-08-30T11:44:24.554Z,4.95
2022-08-30T11:47:43.950Z,6.50
2022-08-30T11:50:51.569Z,6.22
2022-08-30T11:54:05.730Z,8.20
2022-08-30T11:57:41.429Z,4.60
2022-08-30T12:00:52.908Z,6.05
2022-08-30T12:03:59.729Z,5.82
2022-08-30T12:07:08.173Z,4.70
2022-08-30T12:10:22.884Z,5.85
2022-08-30T12:13:35.783Z,4.55
2022-08-30T12:17:05.878Z,6.47
2022-08-30T12:20:19.743Z,5.10
2022-08-30T12:23:50.120Z,5.28
2022-08-30T12:26:53.697Z,4.40
2022-08-30T12:29:59.795Z,4.78
2022-08-30T12:33:01.683Z,5.07
2022-08-30T12:36:05.208Z,5.95
2022-08-30T12:39:21.250Z,4.60
2022-08-30T12:42:27.140Z,5.28
2022-08-30T12:45:43.195Z,5.00
2022-08-30T12:48:45.498Z,4.88
2022-08-30T12:51:47.828Z,4.60
2022-08-30T12:54:52.140Z,4.45
2022-08-30T12:58:00.969Z,6.97
2022-08-30T13:01:26.946Z,4.32
2022-08-30T13:04:29.356Z,4.55
2022-08-30T13:07:34.393Z,5.32
2022-08-30T13:10:37.535Z,8.88
2022-08-30T13:13:46.216Z,4.50
2022-08-30T13:17:07.178Z,6.20
2022-08-30T13:20:12.039Z,5.32
2022-08-30T13:23:23.170Z,4.97
2022-08-30T13:26:25.322Z,4.25
2022-08-30T13:29:29.618Z,4.10
2022-08-30T13:32:38.880Z,5.13
2022-08-30T13:35:41.300Z,5.18
2022-08-30T13:38:43.327Z,4.35
2022-08-30T13:41:45.588Z,5.97
2022-08-30T13:44:49.198Z,4.30
2022-08-30T13:47:51.798Z,4.30
2022-08-30T13:50:53.938Z,7.45
2022-08-30T13:53:56.111Z,4.10
2022-08-30T13:56:59.505Z,4.50
2022-08-30T14:00:07.861Z,4.53
2022-08-30T14:03:10.261Z,4.20
2022-08-30T14:06:32.220Z,4.18
2022-08-30T14:09:34.327Z,4.25
2022-08-30T14:19:23.213Z,6.68
2022-08-30T14:22:25.279Z,6.28
2022-08-30T14:25:28.843Z,4.47
2022-08-30T14:28:31.277Z,4.82
2022-08-30T14:31:33.717Z,7.55
2022-08-30T14:34:35.951Z,3.90
2022-08-30T14:37:37.822Z,4.50
2022-08-30T14:40:41.657Z,7.80
2022-08-30T14:43:44.100Z,4.18
2022-08-30T14:46:46.588Z,5.35
2022-08-30T14:49:48.609Z,4.05
2022-08-30T14:52:52.127Z,4.07
2022-08-30T14:55:54.045Z,4.20
2022-08-30T14:59:00.743Z,4.50
2022-08-30T15:02:02.704Z,5.95
2022-08-30T15:05:07.086Z,5.03
2022-08-30T15:08:10.738Z,4.07
2022-08-30T15:11:15.280Z,3.75
2022-08-30T15:14:17.403Z,4.00
2022-08-30T15:17:19.834Z,4.40
2022-08-30T15:20:21.834Z,4.18
2022-08-30T15:23:24.977Z,5.05
2022-08-30T15:26:27.057Z,4.20
2022-08-30T15:29:31.573Z,4.60
2022-08-30T15:32:34.008Z,5.13
2022-08-30T15:35:36.129Z,5.95
2022-08-30T15:38:39.453Z,8.43
2022-08-30T15:41:44.470Z,7.63
2022-08-30T15:44:50.869Z,7.20
2022-08-30T15:47:52.848Z,5.28
2022-08-30T15:50:58.770Z,4.22
2022-08-30T15:54:00.994Z,5.93
2022-08-30T15:57:03.053Z,4.38
2022-08-30T16:00:11.744Z,5.97
2022-08-30T16:03:14.119Z,4.72
2022-08-30T16:06:20.254Z,6.25
2022-08-30T16:09:22.534Z,6.03
2022-08-30T16:12:25.193Z,5.78
2022-08-30T16:15:28.838Z,4.15
2022-08-30T16:18:31.636Z,5.40
2022-08-30T16:21:37.133Z,4.30
2022-08-30T16:24:39.944Z,4.65
2022-08-30T16:27:44.442Z,6.55
2022-08-30T16:30:46.405Z,5.70
2022-08-30T16:33:53.120Z,4.32
2022-08-30T16:36:56.221Z,4.93
2022-08-30T16:39:58.454Z,7.50
2022-08-30T16:43:00.523Z,7.05
2022-08-30T16:46:04.571Z,6.45
2022-08-30T16:49:10.509Z,9.57
2022-08-30T16:52:12.764Z,16.60
2022-08-30T16:55:14.856Z,10.75
2022-08-30T16:58:18.980Z,14.20
2022-08-30T17:01:23.087Z,7.07
2022-08-30T17:04:26.114Z,8.25
2022-08-30T17:07:29.388Z,7.68
2022-08-30T17:10:31.388Z,5.30
2022-08-30T17:13:35.933Z,6.22
2022-08-30T17:16:38.031Z,8.10
2022-08-30T17:19:42.973Z,6.40
2022-08-30T17:22:46.213Z,5.53
2022-08-30T17:25:49.063Z,7.20
2022-08-30T17:28:51.024Z,7.25
2022-08-30T17:31:53.393Z,7.13
2022-08-30T17:34:55.383Z,6.75
2022-08-30T17:37:57.773Z,8.45
2022-08-30T17:41:08.441Z,7.45
2022-08-30T17:44:11.623Z,5.97
2022-08-30T17:47:13.575Z,5.47
2022-08-30T17:50:15.991Z,6.70
2022-08-30T17:53:21.547Z,7.57
2022-08-30T17:56:35.494Z,6.25
2022-08-30T17:59:37.932Z,6.50
2022-08-30T18:02:41.497Z,8.98
2022-08-30T18:05:46.848Z,6.05
2022-08-30T18:08:49.099Z,7.32
2022-08-30T18:11:56.417Z,6.43
2022-08-30T18:14:58.951Z,6.18
2022-08-30T18:18:00.857Z,9.45
2022-08-30T18:21:15.916Z,5.97
2022-08-30T18:24:18.385Z,7.55
2022-08-30T18:27:20.383Z,8.18
2022-08-30T18:30:22.600Z,7.22
2022-08-30T18:33:25.797Z,5.65
2022-08-30T18:36:28.519Z,6.95
2022-08-30T18:39:34.481Z,6.22
2022-08-30T18:42:37.577Z,7.13
2022-08-30T18:45:46.249Z,6.72
2022-08-30T18:48:51.216Z,6.82
2022-08-30T18:51:53.625Z,7.03
2022-08-30T18:54:55.609Z,7.15
2022-08-30T18:58:01.847Z,6.47
2022-08-30T19:01:04.931Z,7.47
2022-08-30T19:04:07.659Z,8.32
2022-08-30T19:07:12.438Z,6.60
2022-08-30T19:10:16.859Z,7.50
2022-08-30T19:13:23.333Z,6.60
2022-08-30T19:16:28.679Z,6.07
2022-08-30T19:19:30.699Z,8.63
2022-08-30T19:23:05.743Z,7.95
2022-08-30T19:25:56.281Z,7.75
2022-08-30T19:28:59.949Z,6.72
2022-08-30T19:32:04.552Z,7.17
2022-08-30T19:35:07.227Z,7.77
2022-08-30T19:38:10.190Z,8.05
2022-08-30T19:41:13.299Z,6.63
2022-08-30T19:44:15.332Z,8.73
2022-08-30T19:47:18.345Z,7.30
2022-08-30T19:50:21.985Z,7.43
2022-08-30T19:53:25.060Z,6.93
2022-08-30T19:56:27.539Z,6.97
2022-08-30T19:59:29.546Z,7.67
2022-08-30T20:02:31.814Z,7.60
2022-08-30T20:05:33.974Z,7.93
2022-08-30T20:08:42.272Z,9.73
2022-08-30T20:11:46.239Z,7.33
2022-08-30T20:14:54.554Z,6.97
2022-08-30T20:18:06.060Z,9.43
2022-08-30T20:21:16.135Z,9.60
2022-08-30T20:24:18.060Z,8.47
2022-08-30T20:27:20.134Z,7.77
2022-08-30T20:30:22.289Z,8.13
2022-08-30T20:33:25.694Z,7.73
2022-08-30T20:36:27.709Z,7.37
2022-08-30T20:39:29.994Z,8.00
2022-08-30T20:42:32.435Z,9.43
2022-08-30T20:45:34.719Z,8.20
2022-08-30T20:48:38.454Z,8.17
2022-08-30T20:51:40.952Z,10.00
2022-08-30T20:54:44.606Z,7.47
2022-08-30T20:57:46.634Z,7.20
2022-08-30T21:00:53.590Z,7.90
2022-08-30T21:03:57.031Z,7.67
2022-08-30T21:06:59.855Z,7.43
2022-08-30T21:10:01.842Z,7.27
2022-08-30T21:13:03.819Z,7.90
2022-08-30T21:16:06.300Z,7.17
2022-08-30T21:19:10.149Z,8.23
2022-08-30T21:22:12.248Z,8.30
2022-08-30T21:25:14.325Z,7.70
2022-08-30T21:28:17.126Z,7.87
2022-08-30T21:31:23.387Z,8.43
2022-08-30T21:34:25.539Z,8.03
2022-08-30T21:37:27.715Z,8.13
2022-08-30T21:40:29.873Z,13.10
2022-08-30T21:43:31.885Z,9.50
2022-08-30T21:46:35.521Z,6.77
2022-08-30T21:49:37.504Z,9.43
2022-08-30T21:52:39.551Z,8.07
2022-08-30T21:55:41.520Z,8.90
2022-08-30T21:58:46.416Z,8.37
2022-08-30T22:01:49.281Z,11.67
2022-08-30T22:04:51.444Z,8.07
2022-08-30T22:07:53.320Z,15.23
2022-08-30T22:10:55.346Z,8.40
2022-08-30T22:13:58.013Z,8.40
2022-08-30T22:17:00.742Z,12.83
2022-08-30T22:20:04.240Z,8.17
2022-08-30T22:23:06.264Z,6.87
2022-08-30T22:26:10.244Z,10.37
2022-08-30T22:29:13.530Z,7.97
2022-08-30T22:32:15.606Z,8.47
2022-08-30T22:35:17.630Z,10.90
2022-08-30T22:38:19.610Z,8.50
2022-08-30T22:41:25.448Z,11.17
2022-08-30T22:44:27.832Z,8.20
2022-08-30T22:47:31.319Z,9.17
2022-08-30T22:50:33.504Z,8.13
2022-08-30T22:53:35.600Z,9.50
2022-08-30T22:56:38.701Z,8.03
2022-08-30T22:59:40.694Z,8.33
2022-08-30T23:02:47.326Z,9.20
2022-08-30T23:05:49.294Z,6.90
2022-08-30T23:08:51.579Z,11.13
2022-08-30T23:11:53.850Z,11.77
2022-08-30T23:14:55.800Z,10.33
2022-08-30T23:17:58.108Z,8.37
2022-08-30T23:21:11.569Z,8.97
2022-08-30T23:24:31.869Z,7.43
2022-08-30T23:27:52.484Z,8.00
2022-08-30T23:31:13.705Z,8.87
2022-08-30T23:34:34.460Z,9.73
2022-08-30T23:37:55.226Z,7.63
2022-08-30T23:41:15.900Z,7.80
2022-08-30T23:44:36.449Z,8.47
2022-08-30T23:47:57.125Z,7.87
2022-08-30T23:51:22.153Z,9.40
2022-08-30T23:54:43.681Z,7.90
2022-08-30T23:58:04.340Z,9.30
